CheckWX is a tool to help pilots better visualize weather data.  It is not intended as a substitute for an official pre-flight weather briefing.

19:55:31 UTC

KBPT TAF
Jack Brooks Regional Airport
Beaumont/Port Arthur, Texas, USA
KBPT 251720Z 2518/2618 30010KT P6SM -RA VCTS SCT050CB BKN120 FM252000 08010KT P6SM VCSH SCT050 BKN120 FM260100 13007KT P6SM VCTS SCT025CB BKN050

Jun-25@
18:00 UTC

Jun-25 @ 18:00 UTC

Jun-25@
20:00 UTC

Jun-25 @ 20:00 UTC

KBPT 251720Z 2518/2618 30010KT P6SM -RA VCTS SCT050CB BKN120
Wind
  • 300° at 10 KTS
Conditions
Light Rain, Area Thunderstorm
Cloud Levels
  • Scattered at 5,000' AGL
  • Broken at 12,000' AGL

Jun-25@
20:00 UTC

Jun-25 @ 20:00 UTC

Jun-26@
01:00 UTC

Jun-26 @ 01:00 UTC

FM252000 08010KT P6SM VCSH SCT050 BKN120

From

From Standard forecast or significant change

Wind
  • 080° at 10 KTS
Cloud Levels
  • Scattered at 5,000' AGL
  • Broken at 12,000' AGL

Jun-26@
01:00 UTC

Jun-26 @ 01:00 UTC

Jun-26@
18:00 UTC

Jun-26 @ 18:00 UTC

FM260100 13007KT P6SM VCTS SCT025CB BKN050

From

From Standard forecast or significant change

Wind
  • 130° at 7 KTS
Conditions
Area Thunderstorm
Cloud Levels
  • Scattered at 2,500' AGL
  • Broken at 5,000' AGL